IBB859 GCHI-GCXO
Flight info
| Callsign | IBB859 |
|---|---|
| Flight time | 0h 28m |
| Altitude | 12000 |
| Route | TFN |
| Aircraft | AT76/M-SDFGRY/LB1 |
Departure
| Time | 2026-05-01 08:31 |
|---|---|
| Airport | El Hierro Airport (GCHI) |
Arrival
| Time | 2026-05-01 09:00 |
|---|---|
| Airport | Tenerife Norte-Ciudad de La Laguna Airport (GCXO) |
| Time | Latitude | Longitude | Altitude | Speed | Heading |
|---|---|---|---|---|---|
| 2026-05-01 08:05 | 27.81342 | -17.88532 | 95 ft | 0 kts | 332° |
| 2026-05-01 08:25 | 27.81344 | -17.88533 | 95 ft | 2 kts | 332° |
| 2026-05-01 08:25 | 27.81362 | -17.88548 | 96 ft | 4 kts | 300° |
| 2026-05-01 08:25 | 27.81358 | -17.88567 | 96 ft | 0 kts | 244° |
| 2026-05-01 08:28 | 27.81358 | -17.88568 | 96 ft | 1 kts | 243° |
| 2026-05-01 08:28 | 27.81321 | -17.88606 | 96 ft | 9 kts | 175° |
| 2026-05-01 08:28 | 27.81261 | -17.88573 | 98 ft | 9 kts | 152° |
| 2026-05-01 08:28 | 27.81201 | -17.88538 | 99 ft | 11 kts | 152° |
| 2026-05-01 08:29 | 27.81132 | -17.88498 | 101 ft | 12 kts | 153° |
| 2026-05-01 08:29 | 27.81058 | -17.88455 | 103 ft | 12 kts | 152° |
| 2026-05-01 08:29 | 27.80978 | -17.88440 | 103 ft | 7 kts | 148° |
| 2026-05-01 08:29 | 27.80990 | -17.88407 | 102 ft | 4 kts | 357° |
| 2026-05-01 08:30 | 27.81016 | -17.88428 | 104 ft | 0 kts | 331° |
| 2026-05-01 08:30 | 27.81000 | -17.88419 | 104 ft | 6 kts | 333° |
| 2026-05-01 08:30 | 27.80974 | -17.88404 | 103 ft | 0 kts | 332° |
| 2026-05-01 08:31 | 27.81113 | -17.88487 | 102 ft | 55 kts | 332° |
| 2026-05-01 08:31 | 27.81649 | -17.88801 | 90 ft | 116 kts | 332° |
| 2026-05-01 08:31 | 27.82406 | -17.89237 | 495 ft | 121 kts | 337° |
| 2026-05-01 08:31 | 27.83259 | -17.89384 | 950 ft | 131 kts | 5° |
| 2026-05-01 08:32 | 27.84120 | -17.89084 | 1431 ft | 131 kts | 28° |
| 2026-05-01 08:32 | 27.84981 | -17.88614 | 1624 ft | 147 kts | 22° |
| 2026-05-01 08:32 | 27.85801 | -17.87859 | 1867 ft | 156 kts | 50° |
| 2026-05-01 08:32 | 27.86563 | -17.86971 | 2273 ft | 157 kts | 45° |
| 2026-05-01 08:33 | 27.87355 | -17.86110 | 2695 ft | 158 kts | 44° |
| 2026-05-01 08:33 | 27.88140 | -17.85252 | 3104 ft | 159 kts | 44° |
| 2026-05-01 08:33 | 27.88937 | -17.84374 | 3519 ft | 160 kts | 44° |
| 2026-05-01 08:33 | 27.89738 | -17.83489 | 3922 ft | 161 kts | 44° |
| 2026-05-01 08:34 | 27.90547 | -17.82594 | 4306 ft | 164 kts | 44° |
| 2026-05-01 08:34 | 27.91368 | -17.81678 | 4698 ft | 166 kts | 44° |
| 2026-05-01 08:34 | 27.92181 | -17.80771 | 5086 ft | 167 kts | 44° |
| 2026-05-01 08:34 | 27.93018 | -17.79842 | 5450 ft | 169 kts | 44° |
| 2026-05-01 08:35 | 27.93869 | -17.78900 | 5771 ft | 176 kts | 45° |
| 2026-05-01 08:35 | 27.94784 | -17.77871 | 5890 ft | 192 kts | 46° |
| 2026-05-01 08:35 | 27.95737 | -17.76786 | 6220 ft | 196 kts | 46° |
| 2026-05-01 08:35 | 27.96712 | -17.75688 | 6542 ft | 198 kts | 46° |
| 2026-05-01 08:36 | 27.97685 | -17.74595 | 6860 ft | 200 kts | 46° |
| 2026-05-01 08:36 | 27.98680 | -17.73487 | 7181 ft | 201 kts | 45° |
| 2026-05-01 08:36 | 27.99684 | -17.72369 | 7496 ft | 203 kts | 45° |
| 2026-05-01 08:36 | 28.00695 | -17.71241 | 7810 ft | 204 kts | 45° |
| 2026-05-01 08:37 | 28.01710 | -17.70110 | 8116 ft | 205 kts | 45° |
| 2026-05-01 08:37 | 28.02736 | -17.68969 | 8426 ft | 207 kts | 44° |
| 2026-05-01 08:37 | 28.03752 | -17.67835 | 8722 ft | 208 kts | 44° |
| 2026-05-01 08:37 | 28.04792 | -17.66679 | 9015 ft | 210 kts | 44° |
| 2026-05-01 08:38 | 28.05836 | -17.65513 | 9316 ft | 211 kts | 44° |
| 2026-05-01 08:38 | 28.06887 | -17.64344 | 9607 ft | 212 kts | 44° |
| 2026-05-01 08:38 | 28.07943 | -17.63166 | 9890 ft | 213 kts | 44° |
| 2026-05-01 08:38 | 28.09007 | -17.61979 | 10163 ft | 215 kts | 44° |
| 2026-05-01 08:39 | 28.10060 | -17.60802 | 10408 ft | 216 kts | 44° |
| 2026-05-01 08:39 | 28.11133 | -17.59604 | 10653 ft | 217 kts | 44° |
| 2026-05-01 08:39 | 28.12213 | -17.58397 | 10894 ft | 218 kts | 44° |
| 2026-05-01 08:39 | 28.13308 | -17.57175 | 11039 ft | 225 kts | 44° |
| 2026-05-01 08:40 | 28.15220 | -17.54270 | 11130 ft | 240 kts | 68° |
| 2026-05-01 08:40 | 28.15869 | -17.52487 | 11142 ft | 249 kts | 69° |
| 2026-05-01 08:40 | 28.16513 | -17.50653 | 11148 ft | 256 kts | 69° |
| 2026-05-01 08:41 | 28.17182 | -17.48759 | 11151 ft | 262 kts | 69° |
| 2026-05-01 08:41 | 28.17865 | -17.46826 | 11153 ft | 266 kts | 69° |
| 2026-05-01 08:41 | 28.18553 | -17.44868 | 11152 ft | 269 kts | 69° |
| 2026-05-01 08:41 | 28.19251 | -17.42891 | 11152 ft | 270 kts | 69° |
| 2026-05-01 08:42 | 28.19952 | -17.40911 | 11152 ft | 271 kts | 69° |
| 2026-05-01 08:42 | 28.20416 | -17.39590 | 11152 ft | 272 kts | 69° |
| 2026-05-01 08:42 | 28.21349 | -17.36949 | 11154 ft | 273 kts | 69° |
| 2026-05-01 08:42 | 28.22054 | -17.34948 | 11153 ft | 273 kts | 69° |
| 2026-05-01 08:43 | 28.22758 | -17.32941 | 11154 ft | 274 kts | 69° |
| 2026-05-01 08:43 | 28.23236 | -17.31584 | 11152 ft | 274 kts | 69° |
| 2026-05-01 08:43 | 28.23934 | -17.29602 | 11152 ft | 274 kts | 69° |
| 2026-05-01 08:43 | 28.24642 | -17.27589 | 11153 ft | 274 kts | 69° |
| 2026-05-01 08:44 | 28.25348 | -17.25575 | 11152 ft | 274 kts | 69° |
| 2026-05-01 08:44 | 28.26059 | -17.23557 | 11152 ft | 275 kts | 69° |
| 2026-05-01 08:44 | 28.26756 | -17.21564 | 11156 ft | 275 kts | 69° |
| 2026-05-01 08:44 | 28.27464 | -17.19548 | 11154 ft | 275 kts | 69° |
| 2026-05-01 08:45 | 28.28172 | -17.17531 | 11154 ft | 275 kts | 69° |
| 2026-05-01 08:45 | 28.28878 | -17.15509 | 11155 ft | 275 kts | 69° |
| 2026-05-01 08:45 | 28.29588 | -17.13487 | 11156 ft | 275 kts | 69° |
| 2026-05-01 08:45 | 28.30283 | -17.11497 | 11159 ft | 275 kts | 69° |
| 2026-05-01 08:46 | 28.30988 | -17.09483 | 11156 ft | 275 kts | 69° |
| 2026-05-01 08:46 | 28.31691 | -17.07470 | 11162 ft | 275 kts | 69° |
| 2026-05-01 08:46 | 28.32396 | -17.05455 | 11164 ft | 275 kts | 69° |
| 2026-05-01 08:46 | 28.33098 | -17.03442 | 11168 ft | 275 kts | 69° |
| 2026-05-01 08:47 | 28.33803 | -17.01425 | 11172 ft | 275 kts | 69° |
| 2026-05-01 08:47 | 28.34505 | -16.99408 | 11176 ft | 275 kts | 69° |
| 2026-05-01 08:47 | 28.35209 | -16.97391 | 11178 ft | 275 kts | 69° |
| 2026-05-01 08:47 | 28.35904 | -16.95397 | 11176 ft | 275 kts | 69° |
| 2026-05-01 08:48 | 28.36607 | -16.93381 | 11178 ft | 274 kts | 69° |
| 2026-05-01 08:48 | 28.37308 | -16.91361 | 11180 ft | 275 kts | 69° |
| 2026-05-01 08:48 | 28.38012 | -16.89342 | 11177 ft | 275 kts | 69° |
| 2026-05-01 08:48 | 28.38713 | -16.87317 | 11179 ft | 275 kts | 69° |
| 2026-05-01 08:49 | 28.39416 | -16.85297 | 11177 ft | 275 kts | 69° |
| 2026-05-01 08:49 | 28.40118 | -16.83278 | 11178 ft | 275 kts | 69° |
| 2026-05-01 08:49 | 28.40820 | -16.81253 | 11179 ft | 275 kts | 69° |
| 2026-05-01 08:49 | 28.41514 | -16.79254 | 11182 ft | 275 kts | 69° |
| 2026-05-01 08:50 | 28.42216 | -16.77227 | 11182 ft | 275 kts | 69° |
| 2026-05-01 08:50 | 28.42917 | -16.75208 | 11184 ft | 275 kts | 69° |
| 2026-05-01 08:50 | 28.43617 | -16.73185 | 11185 ft | 275 kts | 70° |
| 2026-05-01 08:50 | 28.44317 | -16.71160 | 11185 ft | 275 kts | 69° |
| 2026-05-01 08:51 | 28.45010 | -16.69159 | 11184 ft | 275 kts | 70° |
| 2026-05-01 08:51 | 28.45701 | -16.67161 | 11184 ft | 275 kts | 69° |
| 2026-05-01 08:51 | 28.46402 | -16.65134 | 11185 ft | 275 kts | 70° |
| 2026-05-01 08:51 | 28.47099 | -16.63112 | 11185 ft | 275 kts | 69° |
| 2026-05-01 08:52 | 28.47804 | -16.61071 | 11066 ft | 280 kts | 69° |
| 2026-05-01 08:52 | 28.48526 | -16.58978 | 10833 ft | 288 kts | 69° |
| 2026-05-01 08:52 | 28.49263 | -16.56839 | 10601 ft | 293 kts | 69° |
| 2026-05-01 08:52 | 28.50015 | -16.54660 | 10372 ft | 297 kts | 69° |
| 2026-05-01 08:53 | 28.50762 | -16.52498 | 10182 ft | 298 kts | 69° |
| 2026-05-01 08:53 | 28.51437 | -16.50294 | 9986 ft | 292 kts | 81° |
| 2026-05-01 08:53 | 28.51435 | -16.47979 | 9774 ft | 289 kts | 98° |
| 2026-05-01 08:53 | 28.51057 | -16.45772 | 9577 ft | 289 kts | 107° |
| 2026-05-01 08:54 | 28.50503 | -16.43565 | 9369 ft | 289 kts | 108° |
| 2026-05-01 08:54 | 28.49926 | -16.41369 | 9177 ft | 289 kts | 108° |
| 2026-05-01 08:54 | 28.49404 | -16.39303 | 8891 ft | 254 kts | 107° |
| 2026-05-01 08:54 | 28.48973 | -16.37440 | 8589 ft | 239 kts | 106° |
| 2026-05-01 08:55 | 28.48562 | -16.35699 | 8306 ft | 214 kts | 111° |
| 2026-05-01 08:55 | 28.47770 | -16.34395 | 7953 ft | 194 kts | 136° |
| 2026-05-01 08:55 | 28.46799 | -16.33364 | 7505 ft | 193 kts | 141° |
| 2026-05-01 08:55 | 28.45739 | -16.32354 | 7144 ft | 207 kts | 143° |
| 2026-05-01 08:56 | 28.44662 | -16.31364 | 6749 ft | 191 kts | 143° |
| 2026-05-01 08:56 | 28.43651 | -16.30437 | 6318 ft | 182 kts | 142° |
| 2026-05-01 08:56 | 28.42714 | -16.29528 | 5881 ft | 171 kts | 138° |
| 2026-05-01 08:56 | 28.41878 | -16.28541 | 5167 ft | 172 kts | 124° |
| 2026-05-01 08:57 | 28.41719 | -16.27280 | 4854 ft | 161 kts | 71° |
| 2026-05-01 08:57 | 28.42461 | -16.26498 | 4537 ft | 142 kts | 18° |
| 2026-05-01 08:57 | 28.43433 | -16.26408 | 4085 ft | 141 kts | 359° |
| 2026-05-01 08:57 | 28.44418 | -16.26577 | 3708 ft | 145 kts | 343° |
| 2026-05-01 08:58 | 28.45279 | -16.27083 | 3576 ft | 141 kts | 323° |
| 2026-05-01 08:58 | 28.45945 | -16.27919 | 3327 ft | 146 kts | 307° |
| 2026-05-01 08:58 | 28.46478 | -16.28883 | 3007 ft | 141 kts | 297° |
| 2026-05-01 08:58 | 28.46874 | -16.29931 | 2675 ft | 146 kts | 289° |
| 2026-05-01 08:59 | 28.47220 | -16.30991 | 2409 ft | 147 kts | 290° |
| 2026-05-01 08:59 | 28.47588 | -16.32108 | 2161 ft | 150 kts | 290° |
| 2026-05-01 08:59 | 28.47939 | -16.33167 | 2033 ft | 131 kts | 290° |
| 2026-05-01 08:59 | 28.48220 | -16.34017 | 2046 ft | 101 kts | 291° |
| 2026-05-01 09:00 | 28.48438 | -16.34674 | 2071 ft | 78 kts | 290° |
| 2026-05-01 09:00 | 28.48606 | -16.35152 | 2083 ft | 42 kts | 298° |
| 2026-05-01 09:00 | 28.48722 | -16.35327 | 2075 ft | 15 kts | 339° |
| 2026-05-01 09:00 | 28.48749 | -16.35263 | 2072 ft | 15 kts | 110° |
| 2026-05-01 09:01 | 28.48702 | -16.35120 | 2077 ft | 23 kts | 110° |
| 2026-05-01 09:01 | 28.48639 | -16.34933 | 2080 ft | 25 kts | 112° |
| 2026-05-01 09:01 | 28.48581 | -16.34761 | 2074 ft | 22 kts | 111° |
| 2026-05-01 09:01 | 28.48581 | -16.34667 | 2068 ft | 7 kts | 20° |
| 2026-05-01 09:02 | 28.48659 | -16.34634 | 2066 ft | 13 kts | 20° |
| 2026-05-01 09:02 | 28.48670 | -16.34629 | 2066 ft | 0 kts | 21° |